Terminal Aerodrome Forecast
Issued by NWS

Home | Current Version | Previous Version | Text Only | Print | Product List | Glossary On
Versions: 1 2 3 4 5 6 7 8 9 10 11 12 13 14
000
FTUS46 KLOX 160527
TAFBUR
TAF
KBUR 160527Z 1606/1706 VRB03KT P6SM BKN250
     FM162000 17010KT P6SM SCT250
     FM170200 34007KT P6SM SCT250=

USA.gov is the U.S. government's official web portal to all federal, state and local government web resources and services.